createdAt,value
2023-04-13T00:53:20.269Z,8.82
2023-04-13T00:55:48.879Z,7.93
2023-04-13T00:58:17.169Z,8.63
2023-04-13T01:01:22.230Z,8.48
2023-04-13T01:04:06.350Z,7.40
2023-04-13T01:40:13.960Z,5.70
2023-04-13T01:42:46.744Z,6.18
2023-04-13T01:45:18.569Z,5.95
2023-04-13T01:48:06.388Z,7.20
2023-04-13T01:50:52.497Z,6.00
2023-04-13T01:53:40.007Z,9.07
2023-04-13T02:04:12.954Z,6.72
2023-04-13T02:06:43.606Z,6.95
2023-04-13T02:09:12.160Z,6.63
2023-04-13T02:11:41.411Z,6.93
2023-04-13T02:26:51.387Z,6.57
2023-04-13T02:29:19.887Z,5.10
2023-04-13T02:31:48.074Z,8.85
2023-04-13T02:34:16.427Z,4.47
2023-04-13T02:54:21.592Z,6.63
2023-04-13T02:56:52.916Z,4.90
2023-04-13T02:59:21.875Z,5.03
2023-04-13T03:01:50.838Z,3.60
2023-04-13T03:04:22.716Z,3.65
2023-04-13T03:06:51.415Z,4.88
2023-04-13T03:09:20.226Z,5.50
2023-04-13T03:28:42.333Z,5.97
2023-04-13T03:31:12.092Z,5.60
2023-04-13T03:33:41.544Z,4.28
2023-04-13T03:36:11.510Z,4.82
2023-04-13T03:42:53.003Z,5.45
2023-04-13T03:45:25.741Z,5.72
2023-04-13T03:47:57.839Z,4.38
2023-04-13T03:50:27.469Z,4.18
2023-04-13T03:52:57.366Z,4.35
2023-04-13T03:55:26.410Z,5.57
2023-04-13T03:57:57.962Z,4.60
2023-04-13T04:00:31.854Z,8.15
2023-04-13T04:03:12.547Z,3.55
2023-04-13T04:05:54.527Z,4.60
2023-04-13T04:08:23.354Z,3.80
2023-04-13T04:10:55.110Z,3.05
2023-04-13T04:13:24.479Z,4.10
2023-04-13T04:15:57.353Z,2.47
2023-04-13T04:18:26.331Z,3.30
2023-04-13T04:20:55.343Z,5.68
2023-04-13T04:23:28.560Z,3.42
2023-04-13T04:30:22.528Z,2.75
2023-04-13T04:32:55.548Z,5.80
2023-04-13T04:35:36.189Z,9.18
2023-04-13T04:38:08.632Z,4.18
2023-04-13T04:40:38.641Z,4.72
2023-04-13T04:43:08.930Z,3.35
2023-04-13T04:45:47.523Z,4.53
2023-04-13T04:48:20.691Z,4.32
2023-04-13T04:50:50.503Z,4.90
2023-04-13T04:53:19.331Z,2.88
2023-04-13T04:55:47.673Z,4.88
2023-04-13T04:58:27.778Z,5.18
2023-04-13T05:00:57.692Z,2.85
2023-04-13T05:03:27.792Z,4.38
2023-04-13T05:06:08.353Z,3.80
2023-04-13T05:08:36.679Z,3.30
2023-04-13T05:11:07.658Z,3.42
2023-04-13T05:13:37.051Z,5.97
2023-04-13T05:16:21.743Z,5.07
2023-04-13T05:18:53.511Z,4.53
2023-04-13T05:21:41.379Z,5.75
2023-04-13T05:24:11.780Z,3.17
2023-04-13T05:26:43.883Z,11.02
2023-04-13T05:29:15.148Z,5.38
2023-04-13T05:31:46.183Z,7.10
2023-04-13T05:34:16.915Z,5.90
2023-04-13T05:37:00.230Z,5.38
2023-04-13T05:39:28.850Z,5.65
2023-04-13T05:41:57.876Z,6.28
2023-04-13T05:44:28.275Z,6.35
2023-04-13T05:46:57.286Z,6.10
2023-04-13T05:49:27.031Z,5.50
2023-04-13T05:51:55.734Z,5.57
2023-04-13T05:54:34.597Z,5.78
2023-04-13T05:57:03.724Z,4.63
2023-04-13T05:59:32.367Z,5.85
2023-04-13T06:02:03.433Z,5.80
2023-04-13T06:04:34.824Z,5.43
2023-04-13T06:07:03.176Z,6.10
2023-04-13T06:09:31.437Z,4.45
2023-04-13T06:11:59.890Z,7.82
2023-04-13T06:14:28.407Z,7.10
2023-04-13T06:16:56.610Z,7.30
2023-04-13T06:19:26.921Z,5.70
2023-04-13T06:21:58.845Z,5.38
2023-04-13T06:24:27.697Z,4.38
2023-04-13T06:26:56.899Z,6.82
2023-04-13T06:29:25.424Z,9.35
2023-04-13T06:32:02.779Z,9.10
2023-04-13T06:34:31.602Z,12.07
2023-04-13T06:37:03.538Z,5.50
2023-04-13T06:39:38.035Z,12.23
2023-04-13T06:42:08.907Z,9.30
2023-04-13T06:44:56.226Z,10.60
2023-04-13T06:47:26.438Z,10.48
2023-04-13T06:49:56.578Z,8.30
2023-04-13T06:52:28.919Z,7.40
2023-04-13T06:54:57.320Z,8.07
2023-04-13T07:00:02.801Z,9.65
2023-04-13T07:02:31.306Z,18.15
2023-04-13T07:05:00.890Z,13.85
2023-04-13T07:07:31.527Z,15.10
2023-04-13T07:10:00.619Z,5.25
2023-04-13T07:12:30.337Z,6.05
2023-04-13T07:14:58.729Z,5.00
2023-04-13T07:17:27.497Z,6.70
2023-04-13T07:19:55.894Z,6.90
2023-04-13T07:22:24.121Z,7.90
2023-04-13T07:24:56.190Z,7.97
2023-04-13T07:27:24.621Z,7.00
2023-04-13T07:29:52.924Z,5.90
2023-04-13T07:32:30.277Z,10.18
2023-04-13T07:35:02.249Z,6.97
2023-04-13T07:37:35.070Z,7.47
2023-04-13T07:40:07.130Z,8.63
2023-04-13T07:42:36.470Z,6.88
2023-04-13T07:45:05.355Z,8.82
2023-04-13T07:47:34.989Z,8.13
2023-04-13T07:50:09.948Z,8.38
2023-04-13T07:52:39.474Z,6.97
2023-04-13T07:55:10.828Z,6.82
2023-04-13T07:57:45.537Z,4.53
2023-04-13T08:00:15.536Z,1.77
2023-04-13T08:02:48.197Z,3.05
2023-04-13T08:05:21.417Z,1.88
2023-04-13T08:07:51.048Z,5.95
2023-04-13T08:10:21.077Z,3.88
2023-04-13T08:12:49.453Z,2.97
2023-04-13T08:15:20.119Z,5.88
2023-04-13T08:17:48.584Z,8.98
2023-04-13T08:20:18.999Z,8.18
2023-04-13T08:22:47.353Z,5.53
2023-04-13T08:25:16.048Z,3.72
2023-04-13T08:27:45.861Z,8.90
2023-04-13T08:33:02.426Z,5.47
2023-04-13T08:35:31.319Z,6.40
2023-04-13T08:38:04.778Z,6.55
2023-04-13T08:40:38.498Z,8.05
2023-04-13T08:43:12.287Z,4.00
2023-04-13T08:45:45.828Z,7.80
2023-04-13T08:48:16.098Z,8.85
2023-04-13T08:50:45.720Z,10.05
2023-04-13T08:53:18.642Z,7.10
2023-04-13T08:55:51.643Z,8.93
2023-04-13T08:58:24.909Z,6.75
2023-04-13T09:00:53.665Z,6.22
2023-04-13T09:03:26.090Z,11.20
2023-04-13T09:06:02.453Z,11.43
2023-04-13T09:08:36.432Z,8.35
2023-04-13T09:11:09.419Z,8.23
2023-04-13T09:13:39.242Z,10.27
2023-04-13T09:16:09.043Z,12.50
2023-04-13T09:18:53.269Z,8.55
2023-04-13T09:21:21.893Z,13.80
2023-04-13T09:23:57.736Z,11.95
2023-04-13T09:26:26.557Z,12.18
2023-04-13T09:28:58.683Z,12.38
2023-04-13T09:31:27.288Z,11.48
2023-04-13T09:33:55.629Z,12.35
2023-04-13T09:36:24.474Z,8.88
2023-04-13T09:38:53.683Z,7.05
2023-04-13T09:41:36.415Z,8.40
2023-04-13T09:44:33.415Z,12.02
2023-04-13T09:47:03.107Z,8.60
2023-04-13T09:49:39.259Z,7.90
2023-04-13T09:52:08.687Z,9.32
2023-04-13T09:54:37.178Z,9.32
2023-04-13T09:57:05.555Z,12.63
2023-04-13T09:59:36.159Z,9.68
2023-04-13T10:02:05.753Z,10.68
2023-04-13T10:04:36.461Z,13.38
2023-04-13T10:07:06.277Z,8.95
2023-04-13T10:09:34.459Z,9.07
2023-04-13T10:12:03.782Z,11.23
2023-04-13T10:14:36.718Z,9.20
2023-04-13T10:17:33.287Z,6.90
2023-04-13T10:20:14.056Z,8.70
2023-04-13T10:22:45.453Z,9.20
2023-04-13T10:25:25.719Z,9.40
2023-04-13T10:28:00.990Z,9.95
2023-04-13T10:30:31.244Z,11.20
2023-04-13T10:33:05.968Z,8.52
2023-04-13T10:35:38.959Z,12.77
2023-04-13T10:38:09.557Z,10.55
2023-04-13T10:40:45.377Z,12.38
2023-04-13T10:43:13.927Z,14.18
2023-04-13T10:45:43.692Z,9.80
2023-04-13T10:48:22.375Z,13.38
2023-04-13T10:50:59.477Z,13.05
2023-04-13T10:53:30.961Z,9.48
2023-04-13T10:55:59.852Z,13.10
2023-04-13T10:58:31.890Z,7.90
2023-04-13T11:01:04.111Z,12.07
2023-04-13T11:03:32.770Z,10.00
2023-04-13T11:06:01.428Z,11.32
2023-04-13T11:08:30.923Z,11.20
2023-04-13T11:10:59.316Z,7.75
2023-04-13T11:13:29.926Z,10.57
2023-04-13T11:16:04.206Z,9.48
2023-04-13T11:18:32.871Z,10.38
2023-04-13T11:21:06.063Z,10.40
2023-04-13T11:23:35.128Z,9.68
2023-04-13T11:26:05.572Z,6.63
2023-04-13T11:28:39.499Z,9.80
2023-04-13T11:31:11.807Z,9.23
2023-04-13T11:33:41.178Z,10.13
2023-04-13T11:36:12.209Z,15.10
2023-04-13T11:38:42.300Z,10.90
2023-04-13T11:43:42.817Z,7.07
2023-04-13T11:46:14.040Z,9.82
2023-04-13T11:48:42.922Z,12.05
2023-04-13T11:51:11.861Z,7.13
2023-04-13T11:53:42.075Z,9.80
2023-04-13T11:56:11.079Z,10.07
2023-04-13T11:58:40.170Z,14.05
2023-04-13T12:01:14.287Z,11.15
2023-04-13T12:04:01.548Z,11.70
2023-04-13T12:06:36.128Z,11.80
2023-04-13T12:09:11.049Z,10.18
2023-04-13T12:11:48.749Z,10.95
2023-04-13T12:14:49.877Z,11.00
2023-04-13T12:17:37.405Z,11.02
2023-04-13T12:20:05.105Z,9.32
2023-04-13T12:22:52.257Z,12.63
2023-04-13T12:25:26.064Z,10.93
2023-04-13T12:28:03.731Z,13.55
2023-04-13T12:30:33.322Z,10.90
2023-04-13T12:33:01.358Z,12.30
2023-04-13T12:35:31.948Z,14.52
2023-04-13T12:38:01.251Z,8.98
2023-04-13T12:40:29.274Z,10.73
2023-04-13T12:42:57.203Z,11.05
2023-04-13T12:45:25.376Z,10.85
2023-04-13T12:47:53.476Z,8.27
2023-04-13T12:50:21.625Z,11.02
2023-04-13T12:52:51.121Z,10.25
2023-04-13T12:55:19.083Z,10.10
2023-04-13T12:57:47.117Z,10.45
2023-04-13T13:00:17.604Z,11.40
2023-04-13T13:02:46.234Z,9.85
2023-04-13T13:05:14.113Z,12.13
2023-04-13T13:07:42.113Z,9.02
2023-04-13T13:10:28.415Z,11.68
2023-04-13T13:13:00.678Z,13.40
2023-04-13T13:15:28.657Z,14.73
2023-04-13T13:17:56.762Z,16.10
2023-04-13T13:20:24.868Z,12.07
2023-04-13T13:22:53.361Z,11.48
2023-04-13T13:25:22.829Z,9.48
2023-04-13T13:30:21.893Z,13.55
2023-04-13T13:32:49.817Z,11.05
2023-04-13T13:35:17.693Z,11.80
2023-04-13T13:37:45.721Z,10.43
2023-04-13T13:40:14.278Z,10.55
2023-04-13T13:42:51.949Z,13.32
2023-04-13T13:45:22.247Z,12.35
2023-04-13T13:47:53.498Z,12.70
2023-04-13T13:50:28.429Z,9.68
2023-04-13T13:53:03.039Z,8.93
2023-04-13T13:55:38.220Z,8.50
2023-04-13T13:58:08.133Z,12.25
2023-04-13T14:00:36.309Z,8.90
2023-04-13T14:03:04.272Z,12.88
2023-04-13T14:05:32.465Z,12.77
2023-04-13T14:08:00.424Z,13.45
2023-04-13T14:10:28.480Z,9.57
2023-04-13T14:12:56.746Z,14.82
2023-04-13T14:15:26.655Z,9.00
2023-04-13T14:18:09.192Z,10.30
2023-04-13T14:20:39.621Z,8.05
2023-04-13T14:23:09.718Z,9.95
2023-04-13T14:25:41.477Z,10.02
2023-04-13T14:28:09.775Z,11.48
2023-04-13T14:30:39.797Z,8.50
2023-04-13T14:33:08.623Z,11.95
2023-04-13T14:35:36.800Z,9.07
2023-04-13T14:38:04.792Z,10.15
2023-04-13T14:40:32.879Z,10.63
2023-04-13T14:43:01.059Z,8.10
2023-04-13T14:45:29.058Z,9.35
2023-04-13T14:47:58.773Z,9.43
2023-04-13T14:50:26.700Z,9.00
2023-04-13T14:52:54.644Z,9.68
2023-04-13T14:55:23.321Z,10.13
2023-04-13T14:57:52.281Z,9.38
2023-04-13T15:00:26.688Z,8.45
2023-04-13T15:02:55.457Z,7.78
2023-04-13T15:05:25.177Z,9.25
2023-04-13T15:07:53.145Z,7.25
2023-04-13T15:10:21.647Z,12.30
2023-04-13T15:12:49.671Z,12.02
2023-04-13T15:15:17.679Z,10.15
2023-04-13T15:17:45.813Z,11.95
2023-04-13T15:20:13.742Z,9.48
2023-04-13T15:22:43.266Z,10.50
2023-04-13T15:25:11.825Z,8.60
2023-04-13T15:27:39.683Z,8.63
2023-04-13T15:30:13.024Z,9.90
2023-04-13T15:32:41.459Z,8.80
2023-04-13T15:35:09.690Z,14.57
2023-04-13T15:37:37.660Z,10.88
2023-04-13T15:40:08.481Z,8.50
2023-04-13T15:42:36.545Z,7.97
2023-04-13T15:45:05.812Z,8.63
2023-04-13T15:47:34.083Z,9.63
2023-04-13T15:50:02.788Z,11.48
2023-04-13T15:52:31.420Z,8.38
2023-04-13T15:54:59.630Z,8.35
2023-04-13T15:57:29.255Z,7.43
2023-04-13T15:59:57.607Z,9.73
2023-04-13T16:02:26.418Z,9.13
2023-04-13T16:04:54.650Z,3.47
2023-04-13T16:07:22.800Z,7.15
2023-04-13T16:09:58.543Z,8.75
2023-04-13T16:12:32.090Z,7.45
2023-04-13T16:15:00.720Z,7.50
2023-04-13T16:17:32.649Z,11.25
2023-04-13T16:20:06.027Z,5.75
2023-04-13T16:22:35.666Z,4.60
2023-04-13T16:25:05.780Z,7.10
2023-04-13T16:27:36.345Z,11.20
2023-04-13T16:30:05.240Z,6.57
2023-04-13T16:32:33.506Z,7.78
2023-04-13T16:35:02.335Z,8.20
2023-04-13T16:37:30.628Z,9.48
2023-04-13T16:39:58.910Z,8.57
2023-04-13T16:42:27.233Z,5.63
2023-04-13T16:44:57.110Z,8.38
2023-04-13T16:47:25.402Z,6.25
2023-04-13T16:49:54.229Z,8.95
2023-04-13T16:52:22.430Z,7.95
2023-04-13T16:54:50.640Z,5.47
2023-04-13T16:57:18.968Z,8.10
2023-04-13T16:59:47.729Z,9.65
2023-04-13T17:02:30.634Z,8.43
2023-04-13T17:04:59.884Z,8.57
2023-04-13T17:07:28.707Z,9.07
2023-04-13T17:09:57.072Z,16.80
2023-04-13T17:12:25.423Z,9.00
2023-04-13T17:14:54.260Z,9.68
2023-04-13T17:17:24.188Z,6.63
2023-04-13T17:19:54.068Z,7.18
2023-04-13T17:22:22.850Z,10.20
2023-04-13T17:24:51.160Z,8.88
2023-04-13T17:27:19.379Z,7.63
2023-04-13T17:29:48.348Z,5.75
2023-04-13T17:32:16.823Z,11.55
2023-04-13T17:34:46.715Z,8.63
2023-04-13T17:37:15.210Z,10.38
2023-04-13T17:39:47.895Z,11.45
2023-04-13T17:42:16.511Z,9.90
2023-04-13T17:44:44.992Z,9.00
2023-04-13T17:47:13.350Z,9.07
2023-04-13T17:49:41.709Z,7.85
2023-04-13T17:52:11.560Z,5.32
2023-04-13T17:54:40.857Z,12.15
2023-04-13T17:57:09.151Z,5.47
2023-04-13T17:59:37.306Z,8.82
2023-04-13T18:02:05.545Z,9.68
2023-04-13T18:04:33.992Z,7.25
2023-04-13T18:07:02.300Z,8.60
2023-04-13T18:09:32.114Z,5.70
2023-04-13T18:12:00.371Z,9.82
2023-04-13T18:14:28.635Z,8.50
2023-04-13T18:16:56.996Z,9.07
2023-04-13T18:19:25.213Z,8.52
2023-04-13T18:21:53.594Z,6.05
2023-04-13T18:24:21.765Z,6.85
2023-04-13T18:26:52.318Z,6.40
2023-04-13T18:29:20.707Z,5.65
2023-04-13T18:31:49.104Z,8.82
2023-04-13T18:34:17.666Z,10.10
2023-04-13T18:36:45.899Z,11.25
2023-04-13T18:39:14.656Z,27.55
2023-04-13T18:41:42.906Z,12.18
2023-04-13T18:44:12.719Z,15.02
2023-04-13T18:46:41.333Z,10.13
2023-04-13T18:49:10.127Z,7.63
2023-04-13T18:51:39.025Z,23.65
2023-04-13T18:54:09.857Z,10.27
2023-04-13T18:56:38.858Z,9.43
2023-04-13T18:59:07.211Z,9.27
2023-04-13T19:01:37.912Z,9.63
2023-04-13T19:04:06.708Z,9.00
2023-04-13T19:06:36.599Z,11.50
2023-04-13T19:09:05.018Z,14.38
2023-04-13T19:11:47.270Z,13.18
2023-04-13T19:14:16.156Z,9.77
2023-04-13T19:16:47.962Z,16.67
2023-04-13T19:19:16.935Z,10.15
2023-04-13T19:21:45.989Z,18.33
2023-04-13T19:24:14.653Z,23.02
2023-04-13T19:26:43.799Z,9.25
2023-04-13T19:29:15.211Z,9.82
2023-04-13T19:31:46.191Z,12.18
2023-04-13T19:34:14.770Z,8.70
2023-04-13T19:36:43.290Z,7.95
2023-04-13T19:39:11.720Z,8.68
2023-04-13T19:41:41.294Z,9.75
2023-04-13T19:44:10.325Z,7.70
2023-04-13T19:46:38.922Z,8.07
2023-04-13T19:49:08.973Z,7.65
2023-04-13T19:51:37.316Z,9.02
2023-04-13T19:54:06.433Z,9.48
2023-04-13T19:56:34.885Z,7.03
2023-04-13T19:59:05.444Z,7.43
2023-04-13T20:01:34.459Z,13.15
2023-04-13T20:04:07.023Z,13.77
2023-04-13T20:06:37.574Z,10.60
2023-04-13T20:09:10.954Z,7.53
2023-04-13T20:11:39.643Z,10.25
2023-04-13T20:14:08.233Z,10.02
2023-04-13T20:16:36.882Z,8.98
2023-04-13T20:19:06.257Z,9.30
2023-04-13T20:21:36.420Z,11.15
2023-04-13T20:24:05.856Z,4.60
2023-04-13T20:26:34.278Z,7.35
2023-04-13T20:29:04.809Z,4.18
2023-04-13T20:31:33.710Z,6.18
2023-04-13T20:34:03.611Z,5.05
2023-04-13T20:36:32.772Z,4.97
2023-04-13T20:39:03.641Z,6.80
2023-04-13T20:41:32.652Z,6.50
2023-04-13T20:44:01.391Z,6.78
2023-04-13T20:46:35.192Z,7.07
2023-04-13T20:49:07.667Z,6.40
2023-04-13T20:51:37.268Z,6.45
2023-04-13T20:54:07.747Z,5.47
2023-04-13T20:56:35.869Z,4.93
2023-04-13T20:59:04.142Z,3.55
2023-04-13T21:01:32.300Z,7.75
2023-04-13T21:04:00.767Z,7.93
2023-04-13T21:06:30.299Z,3.60
2023-04-13T21:08:59.349Z,6.05
2023-04-13T21:11:29.053Z,3.75
2023-04-13T21:13:57.091Z,4.47
2023-04-13T21:16:28.533Z,4.10
2023-04-13T21:18:57.401Z,3.03
2023-04-13T21:21:27.212Z,5.35
2023-04-13T21:23:55.401Z,3.08
2023-04-13T21:26:23.447Z,6.28
2023-04-13T21:28:53.538Z,4.43
2023-04-13T21:31:21.908Z,3.47
2023-04-13T21:33:49.910Z,2.55
2023-04-13T21:38:49.286Z,3.58
2023-04-13T21:41:18.551Z,3.63
2023-04-13T21:43:47.302Z,3.20
2023-04-13T21:46:17.128Z,3.17
2023-04-13T21:48:45.489Z,2.47
2023-04-13T21:51:13.560Z,1.88
2023-04-13T21:53:41.715Z,2.15
2023-04-13T21:56:09.720Z,4.15
2023-04-13T21:58:42.033Z,2.78
2023-04-13T22:01:11.155Z,2.92
2023-04-13T22:03:43.281Z,2.60
2023-04-13T22:06:12.373Z,3.13
2023-04-13T22:08:40.802Z,1.55
2023-04-13T22:11:09.161Z,0.80
2023-04-13T22:13:37.208Z,0.60
2023-04-13T22:16:06.034Z,0.73
2023-04-13T22:18:34.175Z,1.13
2023-04-13T22:21:04.134Z,2.28
2023-04-13T22:23:32.081Z,3.78
2023-04-13T22:26:01.906Z,0.80
2023-04-13T22:28:30.627Z,1.00
2023-04-13T22:30:59.289Z,0.60
2023-04-13T22:33:32.020Z,4.50
2023-04-13T22:36:00.314Z,1.30
2023-04-13T22:38:30.065Z,0.85
2023-04-13T22:40:58.518Z,0.85
2023-04-13T22:43:26.602Z,0.60
2023-04-13T22:45:58.537Z,0.65
2023-04-13T22:48:27.885Z,1.40
2023-04-13T22:50:57.283Z,1.00
2023-04-13T22:53:27.044Z,0.17
2023-04-13T22:55:57.231Z,1.05
2023-04-13T22:58:26.668Z,0.28
2023-04-13T23:00:55.923Z,0.40
2023-04-13T23:03:24.863Z,0.63
2023-04-13T23:05:53.882Z,1.00
2023-04-13T23:08:22.104Z,0.30
2023-04-13T23:10:50.135Z,0.40
2023-04-13T23:13:19.767Z,0.30
2023-04-13T23:15:58.867Z,2.47
2023-04-13T23:19:38.443Z,1.15
2023-04-13T23:22:07.400Z,0.57
2023-04-13T23:24:35.787Z,0.68
2023-04-13T23:27:04.468Z,1.02
2023-04-13T23:29:34.488Z,0.65
